Time;durP1;ratioP1;P1;durP2;ratioP2;P2;SDS_P1;SDS_P2;PMS_P1;PMS_P2;Temp;Humidity;BMP_temperature;BMP_pressure;BME280_temperature;BME280_humidity;BME280_pressure;Samples;Min_cycle;Max_cycle;Signal;HPM_P1;HPM_P2
2022/03/30 00:01:23;;;;;;;30.00;13.05;;;;;;;;;;5050663;28;20120;-69
2022/03/30 00:03:49;;;;;;;24.80;13.35;;;;;;;;;;5050474;28;20079;-70
2022/03/30 00:06:15;;;;;;;28.42;13.20;;;;;;;;;;5033275;28;20086;-69
2022/03/30 00:08:42;;;;;;;34.22;14.43;;;;;;;;;;5042112;28;20061;-69
2022/03/30 00:11:09;;;;;;;38.65;14.45;;;;;;;;;;5039304;28;20049;-69
2022/03/30 00:13:35;;;;;;;29.30;14.63;;;;;;;;;;5044409;28;20053;-70
2022/03/30 00:16:02;;;;;;;29.25;13.98;;;;;;;;;;5041188;28;20080;-70
2022/03/30 00:18:28;;;;;;;30.40;14.63;;;;;;;;;;5036571;28;20103;-70
2022/03/30 00:20:54;;;;;;;35.40;14.38;;;;;;;;;;5060764;28;20074;-70
2022/03/30 00:23:20;;;;;;;34.72;15.00;;;;;;;;;;5037501;28;20133;-70
2022/03/30 00:25:46;;;;;;;32.28;15.23;;;;;;;;;;5043234;28;20068;-70
2022/03/30 00:28:12;;;;;;;34.30;15.20;;;;;;;;;;5040921;28;20041;-70
2022/03/30 00:30:38;;;;;;;28.85;14.02;;;;;;;;;;5043282;28;20051;-69
2022/03/30 00:33:04;;;;;;;31.90;15.07;;;;;;;;;;5043028;28;20481;-70
2022/03/30 00:35:30;;;;;;;28.35;15.02;;;;;;;;;;5038014;28;20572;-69
2022/03/30 00:37:57;;;;;;;33.58;14.70;;;;;;;;;;5039502;28;20071;-69
2022/03/30 00:40:23;;;;;;;35.17;14.38;;;;;;;;;;5037506;28;20041;-69
2022/03/30 00:42:49;;;;;;;34.33;15.23;;;;;;;;;;5025762;28;20041;-70
2022/03/30 00:45:16;;;;;;;33.33;14.68;;;;;;;;;;5036449;28;20041;-70
2022/03/30 00:47:43;;;;;;;29.92;15.25;;;;;;;;;;5037845;28;20041;-70
2022/03/30 00:50:10;;;;;;;29.17;14.25;;;;;;;;;;5028243;28;20048;-70
2022/03/30 00:52:36;;;;;;;39.33;15.02;;;;;;;;;;5043417;28;20055;-69
2022/03/30 00:55:03;;;;;;;32.05;14.63;;;;;;;;;;5036012;28;20075;-69
2022/03/30 00:57:30;;;;;;;31.70;14.82;;;;;;;;;;5037158;28;20508;-69
2022/03/30 00:59:57;;;;;;;27.90;13.70;;;;;;;;;;5039094;28;20045;-70
2022/03/30 01:02:23;;;;;;;32.33;14.88;;;;;;;;;;5038143;28;20501;-70
2022/03/30 01:04:50;;;;;;;33.50;15.23;;;;;;;;;;5042759;28;20049;-70
2022/03/30 01:07:16;;;;;;;31.83;14.90;;;;;;;;;;5045577;28;20047;-70
2022/03/30 01:09:42;;;;;;;33.38;15.15;;;;;;;;;;5047558;28;20107;-69
2022/03/30 01:12:09;;;;;;;35.35;16.02;;;;;;;;;;5047779;28;20052;-69
2022/03/30 01:14:35;;;;;;;33.15;14.80;;;;;;;;;;5048922;28;20040;-69
2022/03/30 01:17:01;;;;;;;30.45;14.73;;;;;;;;;;5048249;28;20040;-69
2022/03/30 01:19:32;;;;;;;31.02;15.10;;;;;;;;;;5047248;28;20040;-71
2022/03/30 01:21:59;;;;;;;30.92;14.93;;;;;;;;;;5048194;28;20041;-70
2022/03/30 01:24:25;;;;;;;33.97;16.15;;;;;;;;;;5047277;28;20067;-70
2022/03/30 01:26:51;;;;;;;27.73;15.38;;;;;;;;;;5047258;28;20445;-70
2022/03/30 01:34:46;;;;;;;32.13;15.25;;;;;;;;;;5047871;28;20082;-70
2022/03/30 01:37:13;;;;;;;26.17;15.20;;;;;;;;;;5066479;28;20036;-70
2022/03/30 01:39:40;;;;;;;36.63;16.33;;;;;;;;;;5032200;28;20481;-70
2022/03/30 01:42:06;;;;;;;39.33;16.42;;;;;;;;;;5047379;28;20071;-70
2022/03/30 01:44:33;;;;;;;33.17;15.15;;;;;;;;;;5047969;28;20440;-70
2022/03/30 01:46:59;;;;;;;28.63;15.27;;;;;;;;;;5048508;28;20037;-70
2022/03/30 01:49:25;;;;;;;35.78;16.20;;;;;;;;;;5048273;28;20097;-70
2022/03/30 01:51:55;;;;;;;32.97;16.25;;;;;;;;;;5066366;28;20039;-70
2022/03/30 01:54:22;;;;;;;31.02;15.93;;;;;;;;;;5048350;28;20048;-70
2022/03/30 01:56:49;;;;;;;34.17;16.02;;;;;;;;;;5047528;28;20092;-70
2022/03/30 01:59:16;;;;;;;33.22;16.40;;;;;;;;;;5065126;28;20036;-70
2022/03/30 02:01:42;;;;;;;34.65;16.67;;;;;;;;;;5047794;28;20067;-70
2022/03/30 02:04:08;;;;;;;30.75;15.90;;;;;;;;;;5045935;28;20032;-70
2022/03/30 02:06:35;;;;;;;32.70;15.77;;;;;;;;;;5048211;28;20037;-70
2022/03/30 02:09:01;;;;;;;31.88;15.82;;;;;;;;;;5028363;28;20394;-70
2022/03/30 02:11:28;;;;;;;30.83;15.82;;;;;;;;;;5039939;28;20052;-70
2022/03/30 02:13:55;;;;;;;34.55;15.35;;;;;;;;;;5040636;28;20098;-70
2022/03/30 02:16:21;;;;;;;31.60;16.33;;;;;;;;;;5040383;28;20370;-70
2022/03/30 02:18:47;;;;;;;31.83;15.95;;;;;;;;;;5024245;28;20045;-69
2022/03/30 02:21:13;;;;;;;30.88;16.48;;;;;;;;;;5040847;28;20073;-69
2022/03/30 02:23:39;;;;;;;35.67;18.05;;;;;;;;;;5044562;28;20119;-70
2022/03/30 02:26:06;;;;;;;32.65;16.83;;;;;;;;;;5039230;28;20037;-70
2022/03/30 02:28:32;;;;;;;33.28;16.90;;;;;;;;;;5041286;28;20048;-70
2022/03/30 02:30:58;;;;;;;31.77;16.75;;;;;;;;;;5038131;28;20392;-71
2022/03/30 02:33:24;;;;;;;35.92;17.35;;;;;;;;;;5025784;28;20414;-70
2022/03/30 02:35:51;;;;;;;32.00;15.68;;;;;;;;;;5037437;28;20072;-70
2022/03/30 02:38:17;;;;;;;30.13;16.65;;;;;;;;;;5036759;28;20079;-70
2022/03/30 02:40:43;;;;;;;35.30;16.27;;;;;;;;;;5042847;28;20044;-70
2022/03/30 02:43:10;;;;;;;34.28;17.50;;;;;;;;;;5037436;28;20120;-70
2022/03/30 02:45:36;;;;;;;35.90;18.20;;;;;;;;;;5038818;28;20389;-70
2022/03/30 02:48:18;;;;;;;31.42;15.65;;;;;;;;;;5033690;28;20041;-70
2022/03/30 02:51:04;;;;;;;38.42;18.60;;;;;;;;;;5041232;28;20044;-70
2022/03/30 02:53:30;;;;;;;33.63;18.08;;;;;;;;;;5032296;28;20393;-70
2022/03/30 02:55:56;;;;;;;29.45;15.90;;;;;;;;;;5040290;28;20049;-70
2022/03/30 02:58:23;;;;;;;39.30;18.70;;;;;;;;;;5042488;28;20056;-70
2022/03/30 03:00:49;;;;;;;39.13;18.95;;;;;;;;;;5039035;28;20063;-70
2022/03/30 03:03:15;;;;;;;40.65;19.02;;;;;;;;;;5042276;28;20029;-70
2022/03/30 03:05:42;;;;;;;31.67;17.08;;;;;;;;;;5037711;28;20041;-70
2022/03/30 03:08:10;;;;;;;46.45;18.58;;;;;;;;;;5043646;28;20049;-70
2022/03/30 03:10:36;;;;;;;35.75;18.30;;;;;;;;;;5046029;28;20048;-70
2022/03/30 03:13:03;;;;;;;35.95;18.52;;;;;;;;;;5046662;28;20044;-70
2022/03/30 03:15:30;;;;;;;37.67;17.55;;;;;;;;;;5030489;28;20487;-70
2022/03/30 03:17:56;;;;;;;37.35;18.75;;;;;;;;;;5046095;28;20306;-70
2022/03/30 03:20:22;;;;;;;33.05;18.13;;;;;;;;;;5045656;28;20052;-69
2022/03/30 03:22:48;;;;;;;41.42;19.00;;;;;;;;;;5050043;28;20115;-69
2022/03/30 03:25:14;;;;;;;36.13;18.05;;;;;;;;;;5067130;28;20655;-70
2022/03/30 03:27:40;;;;;;;41.08;18.80;;;;;;;;;;5049716;28;20049;-70
2022/03/30 03:30:07;;;;;;;35.90;18.35;;;;;;;;;;5050109;28;20032;-70
2022/03/30 03:32:33;;;;;;;34.92;18.27;;;;;;;;;;5050381;28;20477;-69
2022/03/30 03:34:59;;;;;;;35.22;18.38;;;;;;;;;;5050657;28;20070;-69
2022/03/30 03:37:25;;;;;;;32.75;17.17;;;;;;;;;;5050614;28;20044;-69
2022/03/30 03:39:51;;;;;;;36.72;18.20;;;;;;;;;;5051700;28;20435;-69
2022/03/30 03:42:17;;;;;;;31.80;16.92;;;;;;;;;;5050802;28;20036;-69
2022/03/30 03:44:44;;;;;;;40.45;18.95;;;;;;;;;;5050645;28;20037;-70
2022/03/30 03:47:10;;;;;;;36.67;17.55;;;;;;;;;;5050166;28;20048;-70
2022/03/30 03:49:36;;;;;;;34.78;18.45;;;;;;;;;;5068382;28;20111;-70
2022/03/30 03:52:03;;;;;;;31.77;17.23;;;;;;;;;;5051776;28;20055;-70
2022/03/30 03:54:29;;;;;;;35.15;16.63;;;;;;;;;;5033090;28;20468;-70
2022/03/30 03:56:55;;;;;;;33.58;17.33;;;;;;;;;;5050494;28;20534;-70
2022/03/30 03:59:21;;;;;;;33.75;15.38;;;;;;;;;;5032792;28;20052;-70
2022/03/30 04:01:48;;;;;;;37.78;17.30;;;;;;;;;;5048660;28;20036;-70
2022/03/30 04:04:14;;;;;;;37.15;16.38;;;;;;;;;;5049862;28;20055;-70
2022/03/30 04:06:40;;;;;;;38.00;16.92;;;;;;;;;;5049666;28;20538;-70
2022/03/30 04:09:06;;;;;;;33.22;17.75;;;;;;;;;;5067005;28;21758;-70
2022/03/30 04:11:32;;;;;;;35.63;16.40;;;;;;;;;;5049165;28;20033;-70
2022/03/30 04:13:58;;;;;;;33.72;16.80;;;;;;;;;;5049109;28;20569;-70
2022/03/30 04:16:24;;;;;;;34.35;16.95;;;;;;;;;;5049143;28;20700;-70
2022/03/30 04:18:50;;;;;;;32.88;16.10;;;;;;;;;;5049363;28;20072;-70
2022/03/30 04:21:16;;;;;;;36.22;17.02;;;;;;;;;;5049749;28;20048;-70
2022/03/30 04:23:43;;;;;;;38.78;16.98;;;;;;;;;;5049767;28;20415;-70
2022/03/30 04:26:12;;;;;;;30.77;16.10;;;;;;;;;;5032972;28;20048;-70
2022/03/30 04:28:40;;;;;;;29.40;15.60;;;;;;;;;;5032516;28;20079;-69
2022/03/30 04:31:10;;;;;;;35.33;16.10;;;;;;;;;;5048135;28;20052;-70
2022/03/30 04:33:36;;;;;;;32.67;16.67;;;;;;;;;;5048875;28;20158;-70
2022/03/30 04:36:03;;;;;;;34.92;16.98;;;;;;;;;;5048992;28;20048;-70
2022/03/30 04:38:29;;;;;;;33.33;15.80;;;;;;;;;;5067321;28;20239;-70
2022/03/30 04:40:55;;;;;;;34.40;16.38;;;;;;;;;;5049546;28;20033;-70
2022/03/30 04:43:21;;;;;;;31.70;16.05;;;;;;;;;;5049666;28;20111;-70
2022/03/30 04:45:47;;;;;;;35.15;16.27;;;;;;;;;;5049612;28;20039;-70
2022/03/30 04:48:13;;;;;;;30.15;15.13;;;;;;;;;;5048547;28;20461;-70
2022/03/30 04:50:39;;;;;;;32.47;16.80;;;;;;;;;;5016695;28;20384;-70
2022/03/30 04:53:05;;;;;;;32.83;17.02;;;;;;;;;;5015767;28;20085;-70
2022/03/30 04:55:32;;;;;;;33.33;15.93;;;;;;;;;;5032604;28;20502;-70
2022/03/30 04:57:58;;;;;;;33.50;16.02;;;;;;;;;;5048405;28;20500;-70
2022/03/30 05:00:24;;;;;;;36.20;15.23;;;;;;;;;;5048475;28;20489;-70
2022/03/30 05:02:51;;;;;;;33.05;16.73;;;;;;;;;;5048428;28;20043;-70
2022/03/30 05:05:17;;;;;;;38.65;16.25;;;;;;;;;;5047740;28;20780;-71
2022/03/30 05:07:43;;;;;;;32.80;15.88;;;;;;;;;;5031835;28;20044;-70
2022/03/30 05:10:10;;;;;;;38.00;17.30;;;;;;;;;;5048139;28;20098;-70
2022/03/30 05:12:36;;;;;;;33.53;17.80;;;;;;;;;;5048488;28;20041;-70
2022/03/30 05:15:02;;;;;;;33.70;16.02;;;;;;;;;;5049138;28;20052;-70
2022/03/30 05:17:28;;;;;;;32.63;15.77;;;;;;;;;;5048187;28;20041;-70
2022/03/30 05:19:54;;;;;;;29.15;15.18;;;;;;;;;;5048827;28;20511;-70
2022/03/30 05:22:20;;;;;;;35.22;16.23;;;;;;;;;;5031856;28;20036;-70
2022/03/30 05:24:46;;;;;;;32.17;16.05;;;;;;;;;;5048467;28;20041;-70
2022/03/30 05:27:13;;;;;;;31.05;16.73;;;;;;;;;;5048270;28;20055;-70
2022/03/30 05:29:40;;;;;;;31.17;15.20;;;;;;;;;;5047638;28;20040;-70
2022/03/30 05:32:06;;;;;;;33.47;15.52;;;;;;;;;;5065619;28;20547;-69
2022/03/30 05:34:33;;;;;;;26.85;14.13;;;;;;;;;;5048767;28;20509;-70
2022/03/30 05:36:59;;;;;;;36.22;14.00;;;;;;;;;;5047717;28;20041;-70
2022/03/30 05:39:25;;;;;;;29.15;14.63;;;;;;;;;;5048498;28;20036;-69
2022/03/30 05:41:54;;;;;;;33.92;15.23;;;;;;;;;;5031846;28;20117;-69
2022/03/30 05:44:20;;;;;;;32.30;14.68;;;;;;;;;;5047675;28;20044;-69
2022/03/30 05:46:46;;;;;;;29.48;13.75;;;;;;;;;;5047434;28;20041;-70
2022/03/30 05:49:13;;;;;;;27.17;13.25;;;;;;;;;;5066602;28;20032;-69
2022/03/30 05:51:39;;;;;;;28.85;13.18;;;;;;;;;;5047968;28;20378;-70
2022/03/30 05:54:05;;;;;;;28.63;12.02;;;;;;;;;;5046778;28;20510;-69
2022/03/30 05:59:16;;;;;;;25.63;10.85;;;;;;;;;;5064832;28;20086;-69
2022/03/30 06:01:42;;;;;;;21.20;10.27;;;;;;;;;;5047709;28;20052;-69
2022/03/30 06:04:08;;;;;;;17.20;9.25;;;;;;;;;;5047586;28;20041;-69
2022/03/30 06:06:34;;;;;;;17.25;6.72;;;;;;;;;;5047858;28;20384;-69
2022/03/30 06:09:02;;;;;;;10.73;5.80;;;;;;;;;;5047479;28;20056;-69
2022/03/30 06:11:28;;;;;;;9.07;4.93;;;;;;;;;;5046460;28;20107;-69
2022/03/30 06:13:58;;;;;;;9.65;4.25;;;;;;;;;;5045762;28;20069;-69
2022/03/30 06:16:24;;;;;;;7.18;3.70;;;;;;;;;;5047155;28;20059;-69
2022/03/30 06:18:50;;;;;;;8.07;3.55;;;;;;;;;;5045871;28;20094;-69
2022/03/30 06:21:17;;;;;;;5.10;3.10;;;;;;;;;;5065402;28;20040;-69
2022/03/30 06:23:43;;;;;;;6.63;3.00;;;;;;;;;;5031231;28;20048;-69
2022/03/30 06:26:09;;;;;;;6.40;2.70;;;;;;;;;;5046671;28;20079;-69
2022/03/30 06:28:35;;;;;;;6.30;3.08;;;;;;;;;;5047067;28;20135;-69
2022/03/30 06:31:01;;;;;;;5.57;2.53;;;;;;;;;;5046643;28;20036;-70
2022/03/30 06:33:27;;;;;;;4.47;2.63;;;;;;;;;;5045931;28;20511;-70
2022/03/30 06:35:53;;;;;;;6.45;2.55;;;;;;;;;;5046219;28;20040;-69
2022/03/30 06:38:19;;;;;;;6.53;2.25;;;;;;;;;;5046957;28;20075;-69
2022/03/30 06:40:47;;;;;;;4.05;2.08;;;;;;;;;;5047707;28;20043;-69
2022/03/30 06:43:16;;;;;;;3.30;2.03;;;;;;;;;;5045846;28;20043;-69
2022/03/30 06:45:46;;;;;;;3.53;1.95;;;;;;;;;;5048400;28;20064;-69
2022/03/30 06:48:12;;;;;;;5.97;2.00;;;;;;;;;;5046563;28;20101;-70
2022/03/30 06:50:38;;;;;;;2.33;1.65;;;;;;;;;;5047525;28;20044;-70
2022/03/30 06:53:09;;;;;;;3.10;1.70;;;;;;;;;;5046569;28;20131;-69
2022/03/30 06:55:37;;;;;;;2.58;1.67;;;;;;;;;;5046493;28;20516;-70
2022/03/30 06:58:03;;;;;;;2.92;1.70;;;;;;;;;;5048789;28;20057;-70
2022/03/30 07:00:31;;;;;;;3.17;1.70;;;;;;;;;;5050789;28;20068;-69
2022/03/30 07:02:57;;;;;;;4.10;1.65;;;;;;;;;;5050332;28;20070;-69
2022/03/30 07:05:23;;;;;;;3.97;1.80;;;;;;;;;;5033640;28;20045;-70
2022/03/30 07:10:33;;;;;;;3.42;1.70;;;;;;;;;;5049923;28;20048;-69
2022/03/30 07:13:03;;;;;;;3.42;1.55;;;;;;;;;;5050453;28;20036;-69
2022/03/30 07:15:30;;;;;;;2.00;1.73;;;;;;;;;;5050779;28;20036;-69
2022/03/30 07:18:00;;;;;;;2.53;1.80;;;;;;;;;;5051268;28;20071;-69
2022/03/30 07:20:26;;;;;;;2.15;1.30;;;;;;;;;;5050130;28;20045;-69
2022/03/30 07:22:53;;;;;;;2.88;1.58;;;;;;;;;;5049519;28;20044;-69
2022/03/30 07:25:21;;;;;;;1.75;1.00;;;;;;;;;;5047721;28;20063;-69
2022/03/30 07:27:48;;;;;;;2.78;1.20;;;;;;;;;;5046450;28;20067;-69
2022/03/30 07:30:15;;;;;;;3.03;1.30;;;;;;;;;;5049365;28;20047;-69
2022/03/30 07:32:42;;;;;;;1.95;1.40;;;;;;;;;;5050373;28;20044;-69
2022/03/30 07:35:09;;;;;;;3.55;1.50;;;;;;;;;;5049413;28;20059;-69
2022/03/30 07:37:36;;;;;;;1.90;1.60;;;;;;;;;;5049915;28;20048;-69
2022/03/30 07:40:03;;;;;;;2.67;1.90;;;;;;;;;;5050451;28;20064;-69
2022/03/30 07:42:29;;;;;;;3.30;1.88;;;;;;;;;;5051166;28;20036;-69
2022/03/30 07:44:55;;;;;;;6.03;2.50;;;;;;;;;;5049751;28;20071;-69
2022/03/30 07:47:21;;;;;;;3.42;2.28;;;;;;;;;;5049902;28;20150;-69
2022/03/30 07:49:47;;;;;;;4.43;2.20;;;;;;;;;;5049162;28;20043;-69
2022/03/30 07:52:13;;;;;;;3.53;2.35;;;;;;;;;;5050619;28;20534;-69
2022/03/30 07:54:41;;;;;;;3.83;2.42;;;;;;;;;;5051124;28;20048;-69
2022/03/30 07:57:07;;;;;;;4.65;2.60;;;;;;;;;;5050077;28;20062;-69
2022/03/30 07:59:33;;;;;;;3.75;2.33;;;;;;;;;;5049699;28;20120;-69
2022/03/30 08:01:59;;;;;;;2.95;2.05;;;;;;;;;;5049275;28;20098;-69
2022/03/30 08:04:25;;;;;;;3.25;2.30;;;;;;;;;;5049741;28;20044;-69
2022/03/30 08:06:52;;;;;;;4.00;2.30;;;;;;;;;;5047690;28;20132;-69
2022/03/30 08:09:18;;;;;;;4.20;1.98;;;;;;;;;;5047914;28;20048;-68
2022/03/30 08:11:44;;;;;;;4.88;2.35;;;;;;;;;;5049593;28;20040;-69
2022/03/30 08:14:12;;;;;;;3.70;2.30;;;;;;;;;;5050130;28;20435;-69
2022/03/30 08:16:39;;;;;;;4.15;2.92;;;;;;;;;;5050702;28;20917;-69
2022/03/30 08:19:05;;;;;;;3.05;2.45;;;;;;;;;;5049873;28;20538;-69
2022/03/30 08:24:16;;;;;;;3.40;2.20;;;;;;;;;;5050060;28;20055;-69
2022/03/30 08:26:42;;;;;;;3.67;1.92;;;;;;;;;;5033389;28;20043;-69
2022/03/30 08:29:09;;;;;;;3.30;1.73;;;;;;;;;;5049821;28;20481;-69
2022/03/30 08:31:35;;;;;;;4.72;1.75;;;;;;;;;;5049300;28;20056;-69
2022/03/30 08:34:01;;;;;;;2.70;1.52;;;;;;;;;;5049928;28;20063;-69
2022/03/30 08:36:31;;;;;;;3.13;1.90;;;;;;;;;;5050240;28;20036;-69
2022/03/30 08:38:57;;;;;;;3.00;1.63;;;;;;;;;;5049553;28;20055;-69
2022/03/30 08:41:23;;;;;;;4.10;1.83;;;;;;;;;;5049619;28;20106;-69
2022/03/30 08:43:50;;;;;;;2.33;1.30;;;;;;;;;;5048864;28;20040;-69
2022/03/30 08:46:16;;;;;;;2.70;1.45;;;;;;;;;;5050543;28;20032;-70
2022/03/30 08:48:42;;;;;;;1.73;1.20;;;;;;;;;;5049746;28;20087;-69
2022/03/30 08:51:10;;;;;;;3.05;1.63;;;;;;;;;;5049704;28;20120;-70
2022/03/30 08:53:37;;;;;;;3.25;1.40;;;;;;;;;;5033467;28;20489;-70
2022/03/30 08:56:03;;;;;;;2.88;1.52;;;;;;;;;;5049851;28;20040;-70
2022/03/30 08:58:29;;;;;;;3.70;1.30;;;;;;;;;;5049834;28;20511;-70
2022/03/30 09:01:06;;;;;;;4.18;1.48;;;;;;;;;;5049916;28;20472;-70
2022/03/30 09:03:33;;;;;;;3.35;1.63;;;;;;;;;;5049242;28;20040;-69
2022/03/30 09:06:00;;;;;;;3.25;1.40;;;;;;;;;;5048978;28;20630;-70
2022/03/30 09:08:27;;;;;;;3.40;1.60;;;;;;;;;;5049583;28;20056;-70
2022/03/30 09:10:54;;;;;;;3.40;1.60;;;;;;;;;;5047975;28;20059;-70
2022/03/30 09:13:20;;;;;;;5.00;1.40;;;;;;;;;;5049495;28;20116;-70
2022/03/30 09:15:47;;;;;;;3.00;1.30;;;;;;;;;;5047871;28;20047;-71
2022/03/30 09:18:17;;;;;;;2.00;0.88;;;;;;;;;;5049336;28;20059;-70
2022/03/30 09:20:48;;;;;;;6.45;1.80;;;;;;;;;;5049282;28;20043;-70
2022/03/30 09:23:14;;;;;;;5.40;1.50;;;;;;;;;;5048147;28;20035;-70
2022/03/30 09:25:44;;;;;;;5.22;1.90;;;;;;;;;;5047574;28;20089;-71
2022/03/30 09:28:10;;;;;;;6.25;2.00;;;;;;;;;;5046713;28;20108;-71
2022/03/30 09:30:37;;;;;;;5.65;2.00;;;;;;;;;;5046531;28;20036;-71
2022/03/30 09:33:03;;;;;;;5.65;1.70;;;;;;;;;;5047019;28;20047;-70
2022/03/30 09:35:30;;;;;;;3.22;1.90;;;;;;;;;;5049083;28;20051;-71
2022/03/30 09:38:04;;;;;;;4.38;1.42;;;;;;;;;;5031036;28;21377;-71
2022/03/30 09:40:34;;;;;;;4.40;1.40;;;;;;;;;;5046381;28;20033;-70
2022/03/30 09:43:14;;;;;;;3.47;1.42;;;;;;;;;;5048030;28;20037;-66
2022/03/30 09:45:41;;;;;;;4.63;1.55;;;;;;;;;;5052154;28;20115;-69
2022/03/30 09:48:14;;;;;;;4.07;1.60;;;;;;;;;;5052955;28;20045;-69
2022/03/30 09:50:44;;;;;;;5.38;1.50;;;;;;;;;;5052931;28;20052;-70
2022/03/30 09:53:14;;;;;;;3.75;1.35;;;;;;;;;;5053495;28;20438;-70
2022/03/30 09:55:53;;;;;;;3.47;1.20;;;;;;;;;;5053411;28;20048;-70
2022/03/30 09:58:21;;;;;;;3.92;1.42;;;;;;;;;;5035719;28;20040;-70
2022/03/30 10:01:09;;;;;;;3.80;1.20;;;;;;;;;;5050209;28;20049;-69
2022/03/30 10:03:46;;;;;;;3.80;1.30;;;;;;;;;;5039413;28;20044;-69
2022/03/30 10:06:14;;;;;;;2.42;1.20;;;;;;;;;;5051471;28;20077;-69
2022/03/30 10:08:41;;;;;;;4.28;1.40;;;;;;;;;;5050695;28;20056;-70
2022/03/30 10:11:09;;;;;;;6.55;1.58;;;;;;;;;;5034420;28;20405;-68
2022/03/30 10:13:35;;;;;;;3.70;1.10;;;;;;;;;;5069434;28;20564;-70
2022/03/30 10:16:01;;;;;;;5.00;1.10;;;;;;;;;;5066724;28;20396;-70
2022/03/30 10:18:29;;;;;;;4.07;1.40;;;;;;;;;;5032180;28;20048;-69
2022/03/30 10:21:03;;;;;;;2.72;1.10;;;;;;;;;;5035677;28;20396;-70
2022/03/30 10:23:39;;;;;;;4.85;1.50;;;;;;;;;;5036644;28;20635;-70
2022/03/30 10:26:24;;;;;;;3.67;1.63;;;;;;;;;;5051592;28;20075;-70
2022/03/30 10:28:59;;;;;;;5.68;1.63;;;;;;;;;;5051601;28;20043;-70
2022/03/30 10:31:26;;;;;;;2.80;1.30;;;;;;;;;;5053111;28;20078;-70
2022/03/30 10:33:54;;;;;;;3.85;1.55;;;;;;;;;;5055861;28;20115;-69
2022/03/30 10:36:23;;;;;;;5.60;1.40;;;;;;;;;;5056158;28;20066;-69
2022/03/30 10:39:08;;;;;;;5.50;1.58;;;;;;;;;;5058406;28;20455;-70
2022/03/30 10:41:53;;;;;;;3.20;1.55;;;;;;;;;;5055968;28;20052;-70
2022/03/30 10:44:42;;;;;;;4.13;1.45;;;;;;;;;;5057087;28;20515;-70
2022/03/30 10:47:13;;;;;;;4.53;1.63;;;;;;;;;;5039059;28;20086;-70
2022/03/30 10:49:43;;;;;;;4.93;1.83;;;;;;;;;;5055274;28;20036;-70
2022/03/30 10:52:32;;;;;;;4.93;1.77;;;;;;;;;;5038562;28;20033;-70
2022/03/30 10:55:13;;;;;;;4.82;2.15;;;;;;;;;;5042869;28;20049;-70
2022/03/30 10:57:53;;;;;;;3.58;1.80;;;;;;;;;;5054872;28;20055;-70
2022/03/30 11:00:24;;;;;;;4.32;2.17;;;;;;;;;;5055495;28;20556;-70
2022/03/30 11:02:50;;;;;;;3.80;1.80;;;;;;;;;;5056334;28;20464;-70
2022/03/30 11:05:28;;;;;;;4.43;1.80;;;;;;;;;;5055123;28;20064;-70
2022/03/30 11:07:54;;;;;;;4.82;2.00;;;;;;;;;;5054821;28;20044;-70
2022/03/30 11:10:22;;;;;;;4.65;2.00;;;;;;;;;;5073192;28;20051;-70
2022/03/30 11:13:02;;;;;;;4.20;2.25;;;;;;;;;;5053672;28;20472;-70
2022/03/30 11:15:53;;;;;;;4.03;2.30;;;;;;;;;;5054505;28;20365;-70
2022/03/30 11:18:20;;;;;;;6.97;2.35;;;;;;;;;;5053266;28;20040;-70
2022/03/30 11:21:05;;;;;;;4.18;2.40;;;;;;;;;;5057048;28;20036;-70
2022/03/30 11:23:31;;;;;;;3.50;2.67;;;;;;;;;;5054022;28;20032;-71
2022/03/30 11:25:57;;;;;;;4.38;2.83;;;;;;;;;;5054235;28;20064;-71
2022/03/30 11:28:37;;;;;;;3.00;2.28;;;;;;;;;;5054318;28;20056;-70
2022/03/30 11:31:05;;;;;;;4.80;2.42;;;;;;;;;;5055263;28;20041;-70
2022/03/30 11:33:35;;;;;;;4.45;2.47;;;;;;;;;;5055401;28;20115;-70
2022/03/30 11:36:03;;;;;;;3.58;2.17;;;;;;;;;;5053526;28;20044;-69
2022/03/30 11:38:40;;;;;;;3.83;2.05;;;;;;;;;;5052389;28;20534;-69
2022/03/30 11:41:10;;;;;;;2.17;1.55;;;;;;;;;;5053971;28;20064;-68
2022/03/30 11:46:30;;;;;;;3.00;1.80;;;;;;;;;;5072532;28;20039;-67
2022/03/30 11:49:03;;;;;;;2.63;2.10;;;;;;;;;;5038737;28;20040;-68
2022/03/30 11:51:30;;;;;;;4.50;2.05;;;;;;;;;;5054837;28;20431;-68
2022/03/30 11:54:16;;;;;;;1.65;1.55;;;;;;;;;;5054598;28;20040;-68
2022/03/30 11:56:42;;;;;;;2.65;1.60;;;;;;;;;;5054591;28;20044;-68
2022/03/30 11:59:09;;;;;;;2.75;1.70;;;;;;;;;;5054940;28;20037;-67
2022/03/30 12:01:35;;;;;;;4.32;1.80;;;;;;;;;;5054415;28;20067;-68
2022/03/30 12:04:02;;;;;;;2.55;1.70;;;;;;;;;;5038811;28;20384;-68
2022/03/30 12:06:28;;;;;;;4.50;1.60;;;;;;;;;;5054745;28;20040;-68
2022/03/30 12:08:54;;;;;;;5.70;1.70;;;;;;;;;;5053648;28;20126;-69
2022/03/30 12:11:21;;;;;;;5.07;1.85;;;;;;;;;;5071505;28;20044;-69
2022/03/30 12:13:54;;;;;;;3.45;1.65;;;;;;;;;;5038061;28;20169;-70
2022/03/30 12:16:21;;;;;;;3.83;1.90;;;;;;;;;;5054545;28;20119;-70
2022/03/30 12:18:48;;;;;;;3.75;1.77;;;;;;;;;;5053427;28;20041;-70
2022/03/30 12:21:15;;;;;;;4.82;1.92;;;;;;;;;;5051692;28;20032;-70
2022/03/30 12:24:03;;;;;;;4.97;1.70;;;;;;;;;;5055273;28;20089;-70
2022/03/30 12:26:30;;;;;;;5.50;1.60;;;;;;;;;;5069443;28;20476;-70
2022/03/30 12:29:04;;;;;;;3.70;1.40;;;;;;;;;;5051501;28;20063;-70
2022/03/30 12:31:37;;;;;;;4.80;1.42;;;;;;;;;;5048802;28;20147;-70
2022/03/30 12:34:10;;;;;;;3.03;1.67;;;;;;;;;;5050863;28;20079;-70
2022/03/30 12:36:41;;;;;;;1.98;1.30;;;;;;;;;;5051212;28;20048;-70
2022/03/30 12:39:26;;;;;;;3.78;1.63;;;;;;;;;;5051201;28;20070;-70
2022/03/30 12:42:00;;;;;;;4.38;1.60;;;;;;;;;;5050977;28;20040;-70
2022/03/30 12:44:34;;;;;;;15.27;2.30;;;;;;;;;;5050804;28;20028;-70
2022/03/30 12:47:04;;;;;;;6.38;1.38;;;;;;;;;;5071348;28;20116;-70
2022/03/30 12:49:39;;;;;;;3.35;1.38;;;;;;;;;;5050930;28;20052;-70
2022/03/30 12:52:10;;;;;;;4.13;1.37;;;;;;;;;;5052867;28;20040;-70
2022/03/30 12:54:36;;;;;;;5.32;1.55;;;;;;;;;;5051034;28;20044;-70
2022/03/30 12:57:02;;;;;;;6.18;1.50;;;;;;;;;;5051101;28;20037;-70
2022/03/30 12:59:29;;;;;;;6.60;1.50;;;;;;;;;;5069428;28;20043;-70
2022/03/30 13:01:55;;;;;;;2.17;1.15;;;;;;;;;;5051421;28;20092;-70
2022/03/30 13:04:27;;;;;;;4.03;1.42;;;;;;;;;;5051580;28;20488;-70
2022/03/30 13:07:05;;;;;;;3.92;1.33;;;;;;;;;;5050566;28;20087;-70
2022/03/30 13:09:31;;;;;;;3.28;1.20;;;;;;;;;;5051881;28;20451;-70
2022/03/30 13:11:58;;;;;;;4.30;1.58;;;;;;;;;;5050232;28;20041;-70
2022/03/30 13:14:27;;;;;;;4.18;1.23;;;;;;;;;;5050494;28;20043;-70
2022/03/30 13:16:57;;;;;;;2.65;1.27;;;;;;;;;;5050380;28;20036;-70
2022/03/30 13:19:24;;;;;;;3.45;1.20;;;;;;;;;;5033144;28;20127;-69
2022/03/30 13:21:50;;;;;;;2.60;0.85;;;;;;;;;;5050472;28;20047;-70
2022/03/30 13:24:21;;;;;;;2.72;0.93;;;;;;;;;;5051598;28;20052;-70
2022/03/30 13:26:52;;;;;;;3.90;1.38;;;;;;;;;;5050608;28;20491;-70
2022/03/30 13:29:19;;;;;;;3.25;1.30;;;;;;;;;;5050805;28;20502;-70
2022/03/30 13:31:46;;;;;;;24.40;3.35;;;;;;;;;;5049309;28;20040;-70
2022/03/30 13:34:13;;;;;;;3.22;1.02;;;;;;;;;;5051297;28;20500;-70
2022/03/30 13:36:40;;;;;;;2.85;1.20;;;;;;;;;;5051823;28;20047;-71
2022/03/30 13:39:07;;;;;;;3.00;1.02;;;;;;;;;;5049862;28;20103;-70
2022/03/30 13:41:33;;;;;;;2.78;0.95;;;;;;;;;;5051123;28;20040;-70
2022/03/30 13:44:00;;;;;;;3.38;1.27;;;;;;;;;;5052722;28;20437;-70
2022/03/30 13:46:26;;;;;;;3.70;1.00;;;;;;;;;;5052059;28;20105;-70
2022/03/30 13:48:52;;;;;;;2.22;1.20;;;;;;;;;;5050103;28;20132;-70
2022/03/30 13:51:19;;;;;;;3.45;1.20;;;;;;;;;;5052937;28;20044;-70
2022/03/30 13:53:45;;;;;;;3.28;1.60;;;;;;;;;;5049613;28;20488;-70
2022/03/30 13:56:12;;;;;;;3.38;1.88;;;;;;;;;;5050643;28;20045;-70
2022/03/30 13:58:38;;;;;;;4.13;1.40;;;;;;;;;;5052404;28;20056;-69
2022/03/30 14:01:05;;;;;;;3.88;1.77;;;;;;;;;;5049596;28;20040;-69
2022/03/30 14:03:32;;;;;;;4.68;1.40;;;;;;;;;;5034038;28;20045;-70
2022/03/30 14:05:58;;;;;;;3.00;1.50;;;;;;;;;;5051630;28;20036;-70
2022/03/30 14:08:25;;;;;;;6.32;1.42;;;;;;;;;;5049074;28;20061;-70
2022/03/30 14:10:55;;;;;;;2.38;1.20;;;;;;;;;;5050582;28;20398;-70
2022/03/30 14:13:21;;;;;;;5.82;1.52;;;;;;;;;;5048638;28;20582;-70
2022/03/30 14:15:47;;;;;;;4.60;1.40;;;;;;;;;;5048906;28;20121;-70
2022/03/30 14:18:15;;;;;;;4.45;1.67;;;;;;;;;;5048879;28;20071;-70
2022/03/30 14:20:41;;;;;;;8.05;1.90;;;;;;;;;;5049389;28;20040;-70
2022/03/30 14:23:07;;;;;;;6.18;1.85;;;;;;;;;;5048993;28;20048;-70
2022/03/30 14:25:34;;;;;;;3.40;1.80;;;;;;;;;;5049712;28;20048;-70
2022/03/30 14:28:01;;;;;;;2.92;1.27;;;;;;;;;;5048503;28;20036;-69
2022/03/30 14:30:27;;;;;;;3.88;1.40;;;;;;;;;;5048704;28;20497;-70
2022/03/30 14:32:53;;;;;;;4.20;1.60;;;;;;;;;;5048647;28;20067;-70
2022/03/30 14:35:19;;;;;;;4.57;1.40;;;;;;;;;;5049052;28;20050;-70
2022/03/30 14:37:46;;;;;;;4.93;1.52;;;;;;;;;;5050646;28;20476;-70
2022/03/30 14:40:13;;;;;;;2.17;1.45;;;;;;;;;;5049321;28;20132;-70
2022/03/30 14:42:39;;;;;;;4.75;1.40;;;;;;;;;;5049581;28;20051;-70
2022/03/30 14:45:07;;;;;;;4.75;1.50;;;;;;;;;;5049295;28;20060;-70
2022/03/30 14:47:34;;;;;;;3.95;1.60;;;;;;;;;;5050682;28;20119;-70
2022/03/30 14:50:01;;;;;;;3.03;1.40;;;;;;;;;;5051289;28;20040;-70
2022/03/30 14:52:27;;;;;;;3.28;1.50;;;;;;;;;;5051478;28;20453;-70